createdAt,value
2017-04-05T00:00:49.345Z,0
2017-04-05T00:01:49.409Z,0
2017-04-05T00:02:49.399Z,0
2017-04-05T00:03:49.438Z,0
2017-04-05T00:04:49.474Z,0
2017-04-05T00:05:49.509Z,0
2017-04-05T00:06:49.545Z,0
2017-04-05T00:07:49.585Z,0
2017-04-05T00:08:49.619Z,0
2017-04-05T00:09:49.662Z,0
2017-04-05T00:10:49.690Z,0
2017-04-05T00:11:50.028Z,0
2017-04-05T00:12:49.751Z,0
2017-04-05T00:13:49.781Z,0
2017-04-05T00:14:49.829Z,0
2017-04-05T00:15:49.866Z,0
2017-04-05T00:16:49.889Z,0
2017-04-05T00:17:50.224Z,0
2017-04-05T00:18:49.956Z,0
2017-04-05T00:19:50.003Z,0
2017-04-05T00:20:50.329Z,0
2017-04-05T00:21:50.389Z,0
2017-04-05T00:22:50.097Z,0
2017-04-05T00:23:50.139Z,0
2017-04-05T00:24:50.164Z,0
2017-04-05T00:25:50.200Z,0
2017-04-05T00:26:50.549Z,0
2017-04-05T00:27:50.570Z,0
2017-04-05T00:28:50.310Z,0
2017-04-05T00:29:50.333Z,0
2017-04-05T00:30:50.381Z,0
2017-04-05T00:31:50.415Z,0
2017-04-05T00:32:50.448Z,0
2017-04-05T00:33:50.472Z,0
2017-04-05T00:34:50.522Z,0
2017-04-05T00:35:50.561Z,0
2017-04-05T00:36:50.881Z,0
2017-04-05T00:37:50.608Z,0
2017-04-05T00:38:50.949Z,0
2017-04-05T00:39:50.697Z,0
2017-04-05T00:40:50.712Z,0
2017-04-05T00:41:50.759Z,0
2017-04-05T00:42:51.087Z,0
2017-04-05T00:43:50.825Z,0
2017-04-05T00:44:50.857Z,0
2017-04-05T00:45:50.899Z,0
2017-04-05T00:46:51.233Z,0
2017-04-05T00:47:51.262Z,0
2017-04-05T00:48:51.007Z,0
2017-04-05T00:49:51.027Z,0
2017-04-05T00:50:51.072Z,0
2017-04-05T00:51:51.092Z,0
2017-04-05T00:52:51.128Z,0
2017-04-05T00:53:51.169Z,0
2017-04-05T00:54:51.199Z,0
2017-04-05T00:55:51.834Z,0
2017-04-05T00:56:51.277Z,0
2017-04-05T00:57:51.303Z,0
2017-04-05T00:58:51.346Z,0
2017-04-05T00:59:51.989Z,0
2017-04-05T01:00:51.432Z,0
2017-04-05T01:01:51.434Z,0
2017-04-05T01:02:51.478Z,0
2017-04-05T01:03:51.517Z,0
2017-04-05T01:04:51.543Z,0
2017-04-05T01:05:51.584Z,0
2017-04-05T01:06:51.607Z,0
2017-04-05T01:07:51.642Z,0
2017-04-05T01:08:51.707Z,0
2017-04-05T01:09:51.729Z,0
2017-04-05T01:10:51.760Z,0
2017-04-05T01:11:51.790Z,0
2017-04-05T01:12:52.116Z,0
2017-04-05T01:13:52.159Z,0
2017-04-05T01:14:51.889Z,0
2017-04-05T01:15:52.232Z,0
2017-04-05T01:16:52.267Z,0
2017-04-05T01:17:51.996Z,0
2017-04-05T01:18:52.024Z,0
2017-04-05T01:19:52.056Z,0
2017-04-05T01:20:52.407Z,0
2017-04-05T01:21:52.127Z,0
2017-04-05T01:22:52.170Z,0
2017-04-05T01:23:52.497Z,0
2017-04-05T01:24:52.231Z,0
2017-04-05T01:25:52.582Z,0
2017-04-05T01:26:52.308Z,0
2017-04-05T01:27:52.331Z,0
2017-04-05T01:28:52.383Z,0
2017-04-05T01:29:52.403Z,0
2017-04-05T01:30:52.451Z,0
2017-04-05T01:31:52.494Z,0
2017-04-05T01:32:52.512Z,0
2017-04-05T01:33:52.841Z,0
2017-04-05T01:34:52.580Z,0
2017-04-05T01:35:52.618Z,0
2017-04-05T01:36:52.643Z,0
2017-04-05T01:37:52.680Z,0
2017-04-05T01:38:52.745Z,0
2017-04-05T01:39:52.747Z,0
2017-04-05T01:40:52.794Z,0
2017-04-05T01:41:52.820Z,0
2017-04-05T01:42:52.887Z,0
2017-04-05T01:43:52.893Z,0
2017-04-05T01:44:52.917Z,0
2017-04-05T01:45:52.976Z,0
2017-04-05T01:46:52.984Z,0
2017-04-05T01:47:53.018Z,0
2017-04-05T01:48:53.361Z,0
2017-04-05T01:49:53.393Z,0
2017-04-05T01:50:53.742Z,0
2017-04-05T01:51:53.159Z,0
2017-04-05T01:52:53.512Z,0
2017-04-05T01:53:53.225Z,0
2017-04-05T01:54:53.292Z,0
2017-04-05T01:55:53.903Z,0
2017-04-05T01:56:53.340Z,0
2017-04-05T01:57:53.376Z,0
2017-04-05T01:58:53.703Z,0
2017-04-05T01:59:53.735Z,0
2017-04-05T02:00:53.472Z,0
2017-04-05T02:01:53.512Z,0
2017-04-05T02:02:53.543Z,0
2017-04-05T02:03:53.586Z,0
2017-04-05T02:04:53.614Z,0
2017-04-05T02:05:53.646Z,0
2017-04-05T02:06:53.676Z,0
2017-04-05T02:07:53.723Z,0
2017-04-05T02:08:53.748Z,0
2017-04-05T02:09:54.082Z,0
2017-04-05T02:10:53.813Z,0
2017-04-05T02:11:53.857Z,0
2017-04-05T02:12:53.894Z,0
2017-04-05T02:13:53.919Z,0
2017-04-05T02:14:54.265Z,0
2017-04-05T02:15:54.285Z,0
2017-04-05T02:16:54.020Z,0
2017-04-05T02:17:54.058Z,0
2017-04-05T02:18:54.404Z,0
2017-04-05T02:19:54.127Z,0
2017-04-05T02:20:54.163Z,0
2017-04-05T02:21:54.190Z,0
2017-04-05T02:22:54.229Z,0
2017-04-05T02:23:54.277Z,0
2017-04-05T02:24:54.605Z,0
2017-04-05T02:25:54.646Z,0
2017-04-05T02:26:54.379Z,0
2017-04-05T02:27:54.420Z,0
2017-04-05T02:28:54.738Z,0
2017-04-05T02:29:54.480Z,0
2017-04-05T02:30:54.821Z,0
2017-04-05T02:31:54.541Z,0
2017-04-05T02:32:54.584Z,0
2017-04-05T02:33:54.619Z,0
2017-04-05T02:34:54.648Z,0
2017-04-05T02:35:54.681Z,0
2017-04-05T02:36:55.329Z,0
2017-04-05T02:37:54.761Z,0
2017-04-05T02:38:54.779Z,0
2017-04-05T02:39:54.814Z,0
2017-04-05T02:40:54.856Z,0
2017-04-05T02:41:55.186Z,0
2017-04-05T02:42:55.525Z,0
2017-04-05T02:43:54.958Z,0
2017-04-05T02:44:55.002Z,0
2017-04-05T02:45:55.024Z,0
2017-04-05T02:46:55.071Z,0
2017-04-05T02:47:55.099Z,0
2017-04-05T02:48:55.136Z,0
2017-04-05T02:49:55.167Z,0
2017-04-05T02:50:55.218Z,0
2017-04-05T02:51:55.545Z,0
2017-04-05T02:52:55.282Z,0
2017-04-05T02:53:55.310Z,0
2017-04-05T02:54:55.341Z,0
2017-04-05T02:55:55.371Z,0
2017-04-05T02:56:55.402Z,0
2017-04-05T02:57:55.741Z,0
2017-04-05T02:58:55.484Z,0
2017-04-05T02:59:55.511Z,0
2017-04-05T03:00:55.542Z,0
2017-04-05T03:01:55.593Z,0
2017-04-05T03:02:55.616Z,0
2017-04-05T03:03:55.649Z,0
2017-04-05T03:04:55.679Z,0
2017-04-05T03:05:55.716Z,0
2017-04-05T03:06:55.759Z,0
2017-04-05T03:07:55.787Z,0
2017-04-05T03:08:55.819Z,0
2017-04-05T03:09:55.863Z,0
2017-04-05T03:10:56.492Z,0
2017-04-05T03:11:55.945Z,0
2017-04-05T03:12:56.267Z,0
2017-04-05T03:13:56.291Z,0
2017-04-05T03:14:56.329Z,0
2017-04-05T03:15:56.373Z,0
2017-04-05T03:16:56.100Z,0
2017-04-05T03:17:56.141Z,0
2017-04-05T03:18:56.179Z,0
2017-04-05T03:19:56.201Z,0
2017-04-05T03:20:56.233Z,0
2017-04-05T03:21:56.281Z,0
2017-04-05T03:22:56.614Z,0
2017-04-05T03:23:56.348Z,0
2017-04-05T03:24:56.684Z,0
2017-04-05T03:25:56.421Z,0
2017-04-05T03:26:56.740Z,0
2017-04-05T03:27:56.481Z,0
2017-04-05T03:28:56.530Z,0
2017-04-05T03:29:56.544Z,0
2017-04-05T03:30:56.586Z,0
2017-04-05T03:31:56.635Z,0
2017-04-05T03:32:56.659Z,0
2017-04-05T03:33:56.699Z,0
2017-04-05T03:34:56.732Z,0
2017-04-05T03:35:56.761Z,0
2017-04-05T03:36:57.113Z,0
2017-04-05T03:37:56.818Z,0
2017-04-05T03:38:56.865Z,0
2017-04-05T03:39:56.891Z,0
2017-04-05T03:40:57.540Z,0
2017-04-05T03:41:57.278Z,0
2017-04-05T03:42:56.995Z,0
2017-04-05T03:43:57.038Z,0
2017-04-05T03:44:57.065Z,0
2017-04-05T03:45:57.104Z,0
2017-04-05T03:46:57.137Z,0
2017-04-05T03:47:57.169Z,0
2017-04-05T03:48:57.200Z,0
2017-04-05T03:49:57.262Z,0
2017-04-05T03:50:57.593Z,0
2017-04-05T03:51:57.307Z,0
2017-04-05T03:52:57.347Z,0
2017-04-05T03:53:57.382Z,0
2017-04-05T03:54:57.421Z,0
2017-04-05T03:55:57.751Z,0
2017-04-05T03:56:57.504Z,0
2017-04-05T03:57:57.527Z,0
2017-04-05T03:58:57.558Z,0
2017-04-05T03:59:57.586Z,0
2017-04-05T04:00:57.638Z,0
2017-04-05T04:01:58.261Z,0
2017-04-05T04:02:57.701Z,0
2017-04-05T04:03:57.733Z,0
2017-04-05T04:04:57.756Z,4
2017-04-05T04:05:57.803Z,4
2017-04-05T04:06:57.843Z,0
2017-04-05T04:07:57.858Z,4
2017-04-05T04:08:57.900Z,4
2017-04-05T04:09:58.233Z,4
2017-04-05T04:10:58.278Z,4
2017-04-05T04:11:58.018Z,4
2017-04-05T04:12:58.347Z,4
2017-04-05T04:13:58.071Z,8
2017-04-05T04:14:58.105Z,8
2017-04-05T04:15:58.150Z,8
2017-04-05T04:16:58.779Z,8
2017-04-05T04:17:58.509Z,12
2017-04-05T04:18:58.245Z,12
2017-04-05T04:19:58.288Z,16
2017-04-05T04:20:58.310Z,16
2017-04-05T04:21:58.359Z,20
2017-04-05T04:22:58.684Z,28
2017-04-05T04:23:58.429Z,32
2017-04-05T04:24:58.463Z,32
2017-04-05T04:25:58.503Z,36
2017-04-05T04:26:58.526Z,44
2017-04-05T04:27:58.555Z,48
2017-04-05T04:28:58.900Z,56
2017-04-05T04:29:58.621Z,64
2017-04-05T04:30:58.656Z,68
2017-04-05T04:31:58.698Z,76
2017-04-05T04:32:59.030Z,88
2017-04-05T04:33:58.763Z,96
2017-04-05T04:34:58.795Z,108
2017-04-05T04:35:59.140Z,116
2017-04-05T04:36:58.868Z,124
2017-04-05T04:37:58.903Z,140
2017-04-05T04:38:58.948Z,152
2017-04-05T04:39:58.968Z,168
2017-04-05T04:40:59.308Z,192
2017-04-05T04:41:59.038Z,212
2017-04-05T04:42:59.069Z,232
2017-04-05T04:43:59.105Z,236
2017-04-05T04:44:59.140Z,252
2017-04-05T04:45:59.187Z,280
2017-04-05T04:46:59.211Z,304
2017-04-05T04:47:59.243Z,324
2017-04-05T04:48:59.275Z,360
2017-04-05T04:49:59.351Z,396
2017-04-05T04:50:59.366Z,416
2017-04-05T04:51:59.384Z,428
2017-04-05T04:52:59.429Z,444
2017-04-05T04:53:59.458Z,452
2017-04-05T04:54:59.497Z,468
2017-04-05T04:55:59.527Z,496
2017-04-05T04:56:59.855Z,544
2017-04-05T04:57:59.589Z,636
2017-04-05T04:58:59.622Z,784
2017-04-05T04:59:59.669Z,808
2017-04-05T05:00:59.709Z,772
2017-04-05T05:01:59.746Z,756
2017-04-05T05:03:00.078Z,760
2017-04-05T05:04:00.115Z,752
2017-04-05T05:04:59.834Z,748
2017-04-05T05:06:00.176Z,716
2017-04-05T05:07:00.502Z,680
2017-04-05T05:07:59.938Z,668
2017-04-05T05:08:59.970Z,660
2017-04-05T05:10:00.019Z,648
2017-04-05T05:11:00.142Z,664
2017-04-05T05:12:00.074Z,672
2017-04-05T05:13:00.413Z,680
2017-04-05T05:14:00.758Z,684
2017-04-05T05:15:00.193Z,680
2017-04-05T05:16:00.523Z,692
2017-04-05T05:17:00.553Z,712
2017-04-05T05:18:00.584Z,732
2017-04-05T05:19:00.576Z,796
2017-04-05T05:20:00.972Z,820
2017-04-05T05:21:00.726Z,872
2017-04-05T05:22:00.729Z,888
2017-04-05T05:23:00.458Z,900
2017-04-05T05:24:00.816Z,920
2017-04-05T05:25:00.528Z,940
2017-04-05T05:26:01.137Z,968
2017-04-05T05:27:00.615Z,1000
2017-04-05T05:28:00.652Z,1032
2017-04-05T05:29:01.051Z,1068
2017-04-05T05:30:01.014Z,1156
2017-04-05T05:31:00.762Z,1232
2017-04-05T05:32:01.078Z,1280
2017-04-05T05:33:00.809Z,1364
2017-04-05T05:34:00.853Z,1428
2017-04-05T05:35:01.183Z,1460
2017-04-05T05:36:00.917Z,1524
2017-04-05T05:37:00.959Z,1588
2017-04-05T05:38:01.288Z,1584
2017-04-05T05:39:01.055Z,1572
2017-04-05T05:40:01.057Z,1516
2017-04-05T05:41:01.125Z,1468
2017-04-05T05:42:01.423Z,1408
2017-04-05T05:43:01.191Z,1424
2017-04-05T05:44:01.495Z,1376
2017-04-05T05:45:01.256Z,1356
2017-04-05T05:46:01.274Z,1332
2017-04-05T05:47:01.297Z,1360
2017-04-05T05:48:01.335Z,1436
2017-04-05T05:49:01.672Z,1496
2017-04-05T05:50:02.010Z,1568
2017-04-05T05:51:01.436Z,1640
2017-04-05T05:52:01.475Z,1632
2017-04-05T05:53:01.512Z,1628
2017-04-05T05:54:01.542Z,1656
2017-04-05T05:55:01.588Z,1724
2017-04-05T05:56:01.629Z,1736
2017-04-05T05:57:01.966Z,1708
2017-04-05T05:58:01.996Z,1736
2017-04-05T05:59:02.034Z,1956
2017-04-05T06:00:02.070Z,2160
2017-04-05T06:01:01.803Z,2276
2017-04-05T06:02:01.832Z,2400
2017-04-05T06:03:01.869Z,2504
2017-04-05T06:04:01.905Z,2700
2017-04-05T06:05:01.944Z,2868
2017-04-05T06:06:02.291Z,3092
2017-04-05T06:07:02.012Z,3292
2017-04-05T06:08:02.050Z,3180
2017-04-05T06:09:02.397Z,3200
2017-04-05T06:10:02.109Z,3320
2017-04-05T06:11:02.441Z,3384
2017-04-05T06:12:02.496Z,3336
2017-04-05T06:13:02.570Z,3596
2017-04-05T06:14:02.561Z,3796
2017-04-05T06:15:02.285Z,4196
2017-04-05T06:16:02.631Z,4380
2017-04-05T06:17:02.656Z,4720
2017-04-05T06:18:02.693Z,4988
2017-04-05T06:19:02.430Z,4780
2017-04-05T06:20:03.136Z,4512
2017-04-05T06:21:02.502Z,4400
2017-04-05T06:22:03.138Z,4148
2017-04-05T06:23:02.900Z,3916
2017-04-05T06:24:02.616Z,3796
2017-04-05T06:25:02.963Z,3776
2017-04-05T06:26:02.681Z,3752
2017-04-05T06:27:03.107Z,3760
2017-04-05T06:28:03.071Z,3852
2017-04-05T06:29:02.792Z,4092
2017-04-05T06:30:03.307Z,4280
2017-04-05T06:31:03.178Z,4532
2017-04-05T06:32:02.905Z,4568
2017-04-05T06:33:02.938Z,4540
2017-04-05T06:34:02.971Z,4288
2017-04-05T06:35:03.036Z,4028
2017-04-05T06:36:03.040Z,3976
2017-04-05T06:37:03.403Z,4052
2017-04-05T06:38:03.105Z,4324
2017-04-05T06:39:03.445Z,4484
2017-04-05T06:40:03.492Z,4516
2017-04-05T06:41:03.223Z,4608
2017-04-05T06:42:03.255Z,4308
2017-04-05T06:43:03.594Z,4168
2017-04-05T06:44:03.641Z,3932
2017-04-05T06:45:03.354Z,3784
2017-04-05T06:46:03.405Z,3752
2017-04-05T06:47:04.031Z,3876
2017-04-05T06:48:03.793Z,3896
2017-04-05T06:49:04.122Z,3896
2017-04-05T06:50:03.571Z,3772
2017-04-05T06:51:03.916Z,3664
2017-04-05T06:52:03.916Z,3656
2017-04-05T06:53:03.952Z,3736
2017-04-05T06:54:04.104Z,3756
2017-04-05T06:55:04.052Z,3608
2017-04-05T06:56:04.054Z,3620
2017-04-05T06:57:04.134Z,3864
2017-04-05T06:58:04.125Z,4536
2017-04-05T06:59:04.216Z,5004
2017-04-05T07:00:03.907Z,4872
2017-04-05T07:01:04.260Z,4604
2017-04-05T07:02:04.286Z,4540
2017-04-05T07:03:04.008Z,4428
2017-04-05T07:04:04.351Z,4124
2017-04-05T07:05:04.741Z,4008
2017-04-05T07:06:04.437Z,4104
2017-04-05T07:07:04.455Z,4252
2017-04-05T07:08:04.491Z,4284
2017-04-05T07:09:04.544Z,4484
2017-04-05T07:10:04.891Z,4708
2017-04-05T07:11:04.311Z,4744
2017-04-05T07:12:04.647Z,5124
2017-04-05T07:13:04.671Z,6352
2017-04-05T07:14:04.717Z,8052
2017-04-05T07:15:04.446Z,9908
2017-04-05T07:16:04.503Z,12028
2017-04-05T07:17:05.123Z,12688
2017-04-05T07:18:04.863Z,14888
2017-04-05T07:19:05.199Z,10112
2017-04-05T07:20:05.239Z,7392
2017-04-05T07:21:04.665Z,6636
2017-04-05T07:22:05.313Z,6536
2017-04-05T07:23:04.974Z,6632
2017-04-05T07:24:05.067Z,7288
2017-04-05T07:25:04.802Z,7860
2017-04-05T07:26:04.851Z,7144
2017-04-05T07:27:05.494Z,6888
2017-04-05T07:28:05.540Z,7916
2017-04-05T07:29:04.952Z,9628
2017-04-05T07:30:04.996Z,11744
2017-04-05T07:31:05.031Z,13036
2017-04-05T07:32:05.362Z,14304
2017-04-05T07:33:05.396Z,15388
2017-04-05T07:34:05.463Z,15888
2017-04-05T07:35:05.592Z,15532
2017-04-05T07:36:05.814Z,14336
2017-04-05T07:37:05.245Z,13388
2017-04-05T07:38:06.225Z,12792
2017-04-05T07:39:05.322Z,11904
2017-04-05T07:40:05.811Z,11260
2017-04-05T07:41:05.703Z,11216
2017-04-05T07:42:05.438Z,11128
2017-04-05T07:43:05.684Z,10356
2017-04-05T07:44:05.508Z,9708
2017-04-05T07:45:05.549Z,9024
2017-04-05T07:46:05.897Z,8188
2017-04-05T07:47:05.933Z,7884
2017-04-05T07:48:05.823Z,7532
2017-04-05T07:49:06.012Z,7228
2017-04-05T07:50:06.061Z,7156
2017-04-05T07:51:06.391Z,7124
2017-04-05T07:52:06.443Z,6952
2017-04-05T07:53:05.862Z,6896
2017-04-05T07:54:06.198Z,6824
2017-04-05T07:55:06.244Z,6652
2017-04-05T07:56:06.319Z,6504
2017-04-05T07:57:06.642Z,6388
2017-04-05T07:58:08.580Z,6404
2017-04-05T07:59:06.674Z,7576
2017-04-05T08:00:06.423Z,8472
2017-04-05T08:01:06.764Z,8880
2017-04-05T08:02:06.193Z,9240
2017-04-05T08:03:06.226Z,9628
2017-04-05T08:04:06.269Z,9596
2017-04-05T08:05:06.315Z,9380
2017-04-05T08:06:06.670Z,9732
2017-04-05T08:07:06.393Z,9824
2017-04-05T08:08:07.032Z,9592
2017-04-05T08:09:07.050Z,9924
2017-04-05T08:10:06.807Z,10316
2017-04-05T08:11:06.828Z,10904
2017-04-05T08:12:06.594Z,11572
2017-04-05T08:13:06.623Z,12152
2017-04-05T08:14:06.639Z,12344
2017-04-05T08:15:06.979Z,12252
2017-04-05T08:16:07.013Z,12616
2017-04-05T08:17:07.373Z,13552
2017-04-05T08:18:07.403Z,15568
2017-04-05T08:19:07.137Z,18528
2017-04-05T08:20:07.175Z,22368
2017-04-05T08:21:07.833Z,24192
2017-04-05T08:22:08.034Z,19456
2017-04-05T08:23:07.599Z,16608
2017-04-05T08:24:07.343Z,14708
2017-04-05T08:25:07.088Z,14640
2017-04-05T08:26:07.390Z,15292
2017-04-05T08:27:07.751Z,18688
2017-04-05T08:28:07.543Z,23584
2017-04-05T08:29:07.883Z,26208
2017-04-05T08:30:07.262Z,22656
2017-04-05T08:31:07.590Z,21664
2017-04-05T08:32:07.958Z,28896
2017-04-05T08:33:08.349Z,23520
2017-04-05T08:34:07.751Z,24576
2017-04-05T08:35:07.777Z,29984
2017-04-05T08:36:08.170Z,22048
2017-04-05T08:37:07.907Z,24640
2017-04-05T08:38:08.202Z,22816
2017-04-05T08:39:08.221Z,22528
2017-04-05T08:40:08.271Z,16864
2017-04-05T08:41:08.007Z,17472
2017-04-05T08:42:08.344Z,12096
2017-04-05T08:43:08.379Z,9360
2017-04-05T08:44:08.415Z,9628
2017-04-05T08:45:08.151Z,8820
2017-04-05T08:46:08.205Z,7012
2017-04-05T08:47:08.529Z,7948
2017-04-05T08:48:08.592Z,11752
2017-04-05T08:49:08.923Z,10664
2017-04-05T08:50:08.705Z,7712
2017-04-05T08:51:08.691Z,7768
2017-04-05T08:52:08.446Z,9064
2017-04-05T08:53:08.765Z,8416
2017-04-05T08:54:08.530Z,9396
2017-04-05T08:55:08.856Z,9552
2017-04-05T08:56:08.894Z,11308
2017-04-05T08:57:08.922Z,13956
2017-04-05T08:58:08.671Z,22176
2017-04-05T08:59:08.399Z,38624
2017-04-05T09:00:08.770Z,16264
2017-04-05T09:01:11.740Z,15368
2017-04-05T09:02:08.822Z,11960
2017-04-05T09:03:08.861Z,11932
2017-04-05T09:04:09.311Z,12924
2017-04-05T09:05:08.945Z,12284
2017-04-05T09:06:09.296Z,9380
2017-04-05T09:07:08.720Z,12200
2017-04-05T09:08:09.357Z,15696
2017-04-05T09:09:09.409Z,17408
2017-04-05T09:10:09.445Z,22240
2017-04-05T09:11:09.476Z,23776
2017-04-05T09:12:09.218Z,24544
2017-04-05T09:13:09.250Z,25440
2017-04-05T09:14:09.603Z,46688
2017-04-05T09:15:09.347Z,48384
2017-04-05T09:16:09.080Z,58880
2017-04-05T09:17:09.416Z,50528
2017-04-05T09:18:09.788Z,46112
2017-04-05T09:19:09.497Z,28800
2017-04-05T09:20:09.844Z,28320
2017-04-05T09:21:09.897Z,52832
2017-04-05T09:22:09.632Z,32544
2017-04-05T09:23:09.974Z,40896
2017-04-05T09:24:09.704Z,36576
2017-04-05T09:25:09.766Z,18624
2017-04-05T09:26:10.097Z,17312
2017-04-05T09:27:09.849Z,29952
2017-04-05T09:28:09.594Z,24992
2017-04-05T09:29:10.470Z,20288
2017-04-05T09:30:10.282Z,21216
2017-04-05T09:31:10.007Z,18784
2017-04-05T09:32:10.355Z,14484
2017-04-05T09:33:10.090Z,10740
2017-04-05T09:34:09.828Z,12680
2017-04-05T09:35:09.911Z,13288
2017-04-05T09:36:10.224Z,8816
2017-04-05T09:37:10.308Z,8080
2017-04-05T09:38:10.310Z,9604
2017-04-05T09:39:10.357Z,10608
2017-04-05T09:40:10.410Z,8008
2017-04-05T09:41:10.435Z,10464
2017-04-05T09:42:10.485Z,23808
2017-04-05T09:43:10.419Z,43104
2017-04-05T09:44:10.572Z,40224
2017-04-05T09:45:10.451Z,40352
2017-04-05T09:46:10.344Z,41952
2017-04-05T09:47:10.744Z,32992
2017-04-05T09:48:11.013Z,22816
2017-04-05T09:49:10.596Z,22528
2017-04-05T09:50:11.153Z,19392
2017-04-05T09:51:10.863Z,19200
2017-04-05T09:52:10.883Z,22016
2017-04-05T09:53:10.617Z,21984
2017-04-05T09:54:10.664Z,19808
2017-04-05T09:55:10.835Z,22752
2017-04-05T09:56:11.396Z,23008
2017-04-05T09:57:11.094Z,22400
2017-04-05T09:58:10.831Z,46272
2017-04-05T09:59:10.874Z,28896
2017-04-05T10:00:11.265Z,39232
2017-04-05T10:01:11.278Z,33568
2017-04-05T10:02:11.376Z,25184
2017-04-05T10:03:11.749Z,34656
2017-04-05T10:04:11.845Z,41280
2017-04-05T10:05:11.704Z,27968
2017-04-05T10:06:11.176Z,26848
2017-04-05T10:07:11.682Z,27200
2017-04-05T10:08:11.253Z,34592
2017-04-05T10:09:11.594Z,29824
2017-04-05T10:10:11.663Z,25472
2017-04-05T10:11:12.083Z,29152
2017-04-05T10:12:11.736Z,32000
2017-04-05T10:13:11.671Z,48544
2017-04-05T10:14:12.238Z,37600
2017-04-05T10:15:11.863Z,30112
2017-04-05T10:16:11.605Z,23680
2017-04-05T10:17:11.730Z,21504
2017-04-05T10:18:12.023Z,45376
2017-04-05T10:19:11.729Z,33152
2017-04-05T10:20:11.791Z,25760
2017-04-05T10:21:12.224Z,19072
2017-04-05T10:22:12.480Z,23616
2017-04-05T10:23:12.194Z,20864
2017-04-05T10:24:12.568Z,18752
2017-04-05T10:25:12.290Z,14124
2017-04-05T10:26:12.630Z,13352
2017-04-05T10:27:12.682Z,11004
2017-04-05T10:28:12.443Z,9396
2017-04-05T10:29:12.769Z,10452
2017-04-05T10:30:12.508Z,9680
2017-04-05T10:31:12.241Z,8176
2017-04-05T10:32:12.598Z,8920
2017-04-05T10:33:12.634Z,9888
2017-04-05T10:34:12.971Z,10816
2017-04-05T10:35:12.425Z,11772
2017-04-05T10:36:12.452Z,12216
2017-04-05T10:37:12.487Z,12460
2017-04-05T10:38:12.847Z,11840
2017-04-05T10:39:13.259Z,10008
2017-04-05T10:40:12.620Z,9508
2017-04-05T10:41:12.681Z,11812
2017-04-05T10:42:12.998Z,15412
2017-04-05T10:43:13.058Z,18208
2017-04-05T10:44:13.083Z,29472
2017-04-05T10:45:13.433Z,18528
2017-04-05T10:46:13.415Z,38400
2017-04-05T10:47:12.944Z,35808
2017-04-05T10:48:12.939Z,28992
2017-04-05T10:49:13.292Z,17632
2017-04-05T10:50:13.647Z,18784
2017-04-05T10:51:13.106Z,15228
2017-04-05T10:52:13.124Z,39808
2017-04-05T10:53:13.156Z,29984
2017-04-05T10:54:13.189Z,20768
2017-04-05T10:55:13.316Z,52928
2017-04-05T10:56:13.586Z,39168
2017-04-05T10:57:13.916Z,22496
2017-04-05T10:58:13.658Z,23680
2017-04-05T10:59:13.712Z,23552
2017-04-05T11:00:14.127Z,12640
2017-04-05T11:01:14.083Z,10136
2017-04-05T11:02:13.527Z,9696
2017-04-05T11:03:14.173Z,9836
2017-04-05T11:04:13.921Z,10140
2017-04-05T11:05:13.963Z,9584
2017-04-05T11:06:13.707Z,10940
2017-04-05T11:07:14.528Z,16576
2017-04-05T11:08:14.162Z,12736
2017-04-05T11:09:14.133Z,22432
2017-04-05T11:10:14.181Z,11752
2017-04-05T11:11:14.543Z,12000
2017-04-05T11:12:14.245Z,12156
2017-04-05T11:13:14.313Z,10196
2017-04-05T11:14:14.042Z,8252
2017-04-05T11:15:14.384Z,8416
2017-04-05T11:16:14.115Z,11184
2017-04-05T11:17:14.151Z,11284
2017-04-05T11:18:14.189Z,9132
2017-04-05T11:19:14.234Z,9744
2017-04-05T11:20:14.586Z,29728
2017-04-05T11:21:14.310Z,17696
2017-04-05T11:22:14.668Z,45632
2017-04-05T11:23:14.481Z,55648
2017-04-05T11:24:14.750Z,55648
2017-04-05T11:25:14.777Z,58816
2017-04-05T11:26:15.117Z,55424
2017-04-05T11:27:14.865Z,49408
2017-04-05T11:28:14.605Z,49792
2017-04-05T11:29:14.957Z,57568
2017-04-05T11:30:14.687Z,56256
2017-04-05T11:31:15.053Z,44000
2017-04-05T11:32:15.082Z,44192
2017-04-05T11:33:15.132Z,46784
2017-04-05T11:34:14.864Z,26144
2017-04-05T11:35:14.919Z,20736
2017-04-05T11:36:14.941Z,19648
2017-04-05T11:37:15.620Z,19168
2017-04-05T11:38:15.044Z,16300
2017-04-05T11:39:15.086Z,15500
2017-04-05T11:40:15.417Z,11124
2017-04-05T11:41:15.155Z,8760
2017-04-05T11:42:15.498Z,7044
2017-04-05T11:43:15.804Z,6020
2017-04-05T11:44:15.736Z,6384
2017-04-05T11:45:19.412Z,12184
2017-04-05T11:46:15.365Z,12844
2017-04-05T11:47:15.406Z,12704
2017-04-05T11:48:15.447Z,11332
2017-04-05T11:49:16.901Z,10744
2017-04-05T11:50:15.547Z,13324
2017-04-05T11:51:15.907Z,14304
2017-04-05T11:52:18.941Z,15448
2017-04-05T11:53:15.977Z,12168
2017-04-05T11:54:15.699Z,9856
2017-04-05T11:55:15.737Z,7668
2017-04-05T11:56:15.787Z,6380
2017-04-05T11:57:15.844Z,5160
2017-04-05T11:58:15.870Z,4628
2017-04-05T11:59:16.205Z,4676
2017-04-05T12:00:16.245Z,4932
2017-04-05T12:01:16.069Z,6820
2017-04-05T12:02:16.335Z,8948
2017-04-05T12:03:16.075Z,8736
2017-04-05T12:04:16.410Z,7660
2017-04-05T12:05:16.246Z,6704
2017-04-05T12:06:16.196Z,6244
2017-04-05T12:07:16.839Z,6248
2017-04-05T12:08:16.288Z,6108
2017-04-05T12:09:16.327Z,6068
2017-04-05T12:10:16.959Z,5992
2017-04-05T12:11:16.389Z,6036
2017-04-05T12:12:16.432Z,6272
2017-04-05T12:13:16.469Z,7528
2017-04-05T12:14:16.818Z,8884
2017-04-05T12:15:16.554Z,9940
2017-04-05T12:16:16.592Z,11392
2017-04-05T12:17:16.636Z,12720
2017-04-05T12:18:16.667Z,12148
2017-04-05T12:19:16.718Z,11256
2017-04-05T12:20:16.764Z,10224
2017-04-05T12:21:16.787Z,9348
2017-04-05T12:22:17.441Z,9660
2017-04-05T12:23:17.182Z,10284
2017-04-05T12:24:17.219Z,8420
2017-04-05T12:25:17.261Z,7536
2017-04-05T12:26:17.844Z,7592
2017-04-05T12:27:17.036Z,7964
2017-04-05T12:28:17.362Z,7680
2017-04-05T12:29:17.710Z,7276
2017-04-05T12:30:17.461Z,7144
2017-04-05T12:31:17.187Z,7148
2017-04-05T12:32:17.224Z,7588
2017-04-05T12:33:17.565Z,8136
2017-04-05T12:34:17.308Z,7900
2017-04-05T12:35:17.676Z,7328
2017-04-05T12:36:17.389Z,6560
2017-04-05T12:37:17.451Z,5848
2017-04-05T12:38:17.477Z,5288
2017-04-05T12:39:18.123Z,4892
2017-04-05T12:40:17.542Z,4872
2017-04-05T12:41:18.202Z,5040
2017-04-05T12:42:18.141Z,5384
2017-04-05T12:45:17.747Z,5996
2017-04-05T12:46:18.083Z,6328
2017-04-05T12:47:18.120Z,6660
2017-04-05T12:48:17.858Z,7108
2017-04-05T12:49:17.907Z,7564
2017-04-05T12:50:17.952Z,8184
2017-04-05T12:51:17.981Z,8720
2017-04-05T12:52:18.023Z,8840
2017-04-05T12:53:18.368Z,8620
2017-04-05T12:54:18.109Z,8340
2017-04-05T12:55:18.143Z,8156
2017-04-05T12:56:18.179Z,8056
2017-04-05T12:57:18.211Z,8148
2017-04-05T12:58:18.566Z,8572
2017-04-05T12:59:18.593Z,8816
2017-04-05T13:00:18.636Z,8944
2017-04-05T13:01:18.692Z,8932
2017-04-05T13:02:18.455Z,9108
2017-04-05T13:03:18.755Z,9020
2017-04-05T13:04:18.496Z,8756
2017-04-05T13:05:18.544Z,8492
2017-04-05T13:06:18.880Z,8192
2017-04-05T13:07:18.910Z,7852
2017-04-05T13:08:18.656Z,8076
2017-04-05T13:09:18.685Z,8416
2017-04-05T13:10:18.734Z,8528
2017-04-05T13:11:19.400Z,9372
2017-04-05T13:12:18.807Z,9700
2017-04-05T13:13:18.843Z,9680
2017-04-05T13:14:19.193Z,9360
2017-04-05T13:15:18.924Z,9108
2017-04-05T13:16:18.966Z,8832
2017-04-05T13:17:19.017Z,8868
2017-04-05T13:18:19.050Z,8944
2017-04-05T13:19:19.387Z,8772
2017-04-05T13:20:19.427Z,8424
2017-04-05T13:21:19.159Z,8156
2017-04-05T13:22:19.505Z,7772
2017-04-05T13:23:19.311Z,7320
2017-04-05T13:24:19.278Z,7112
2017-04-05T13:25:19.325Z,7180
2017-04-05T13:26:19.373Z,7232
2017-04-05T13:27:19.395Z,7304
2017-04-05T13:28:19.447Z,7060
2017-04-05T13:29:19.477Z,6648
2017-04-05T13:30:19.518Z,6260
2017-04-05T13:31:19.557Z,6080
2017-04-05T13:32:19.595Z,5988
2017-04-05T13:33:19.649Z,6040
2017-04-05T13:34:19.997Z,6280
2017-04-05T13:35:19.722Z,6548
2017-04-05T13:36:19.757Z,6880
2017-04-05T13:37:20.514Z,7312
2017-04-05T13:38:19.847Z,7612
2017-04-05T13:39:20.580Z,7764
2017-04-05T13:40:19.925Z,7652
2017-04-05T13:41:19.958Z,7512
2017-04-05T13:42:20.301Z,7352